sensor_id;sensor_type;location;lat;lon;timestamp;temperature;humidity
54158;DHT22;40065;49.894;10.358;2022-09-27T00:01:49;11.70;99.90
54158;DHT22;40065;49.894;10.358;2022-09-27T00:06:51;11.60;99.90
54158;DHT22;40065;49.894;10.358;2022-09-27T00:11:53;11.60;99.90
54158;DHT22;40065;49.894;10.358;2022-09-27T00:16:55;11.60;99.90
54158;DHT22;40065;49.894;10.358;2022-09-27T00:21:56;11.60;99.90
54158;DHT22;40065;49.894;10.358;2022-09-27T00:26:58;11.60;99.90
54158;DHT22;40065;49.894;10.358;2022-09-27T00:32:00;11.60;99.90
54158;DHT22;40065;49.894;10.358;2022-09-27T00:37:03;11.60;99.90
54158;DHT22;40065;49.894;10.358;2022-09-27T00:42:09;11.60;99.90
54158;DHT22;40065;49.894;10.358;2022-09-27T00:47:38;11.50;99.90
54158;DHT22;40065;49.894;10.358;2022-09-27T00:52:55;11.60;99.90
54158;DHT22;40065;49.894;10.358;2022-09-27T00:58:01;11.50;99.90
54158;DHT22;40065;49.894;10.358;2022-09-27T01:03:06;11.50;99.90
54158;DHT22;40065;49.894;10.358;2022-09-27T01:08:10;11.50;99.90
54158;DHT22;40065;49.894;10.358;2022-09-27T01:13:19;11.60;99.90
54158;DHT22;40065;49.894;10.358;2022-09-27T01:23:52;11.60;99.90
54158;DHT22;40065;49.894;10.358;2022-09-27T01:29:24;11.70;99.90
54158;DHT22;40065;49.894;10.358;2022-09-27T01:34:46;11.70;99.90
54158;DHT22;40065;49.894;10.358;2022-09-27T01:56:32;11.70;99.90
54158;DHT22;40065;49.894;10.358;2022-09-27T02:01:45;11.50;99.90
54158;DHT22;40065;49.894;10.358;2022-09-27T02:06:53;11.50;99.90
54158;DHT22;40065;49.894;10.358;2022-09-27T02:12:03;11.50;99.90
54158;DHT22;40065;49.894;10.358;2022-09-27T02:17:58;11.40;99.90
54158;DHT22;40065;49.894;10.358;2022-09-27T02:33:23;11.30;99.90
54158;DHT22;40065;49.894;10.358;2022-09-27T02:38:27;11.30;99.90
54158;DHT22;40065;49.894;10.358;2022-09-27T02:43:31;11.30;99.90
54158;DHT22;40065;49.894;10.358;2022-09-27T02:54:35;11.40;99.90
54158;DHT22;40065;49.894;10.358;2022-09-27T03:00:22;11.30;99.90
54158;DHT22;40065;49.894;10.358;2022-09-27T03:05:51;11.20;99.90
54158;DHT22;40065;49.894;10.358;2022-09-27T03:10:54;11.20;99.90
54158;DHT22;40065;49.894;10.358;2022-09-27T03:15:56;11.10;99.90
54158;DHT22;40065;49.894;10.358;2022-09-27T03:21:20;11.10;99.90
54158;DHT22;40065;49.894;10.358;2022-09-27T03:26:22;11.20;99.90
54158;DHT22;40065;49.894;10.358;2022-09-27T03:31:25;11.30;99.90
54158;DHT22;40065;49.894;10.358;2022-09-27T03:36:59;11.30;99.90
54158;DHT22;40065;49.894;10.358;2022-09-27T03:42:04;11.30;99.90
54158;DHT22;40065;49.894;10.358;2022-09-27T03:47:11;11.30;99.90
54158;DHT22;40065;49.894;10.358;2022-09-27T03:52:13;11.30;99.90
54158;DHT22;40065;49.894;10.358;2022-09-27T03:57:16;11.30;99.90
54158;DHT22;40065;49.894;10.358;2022-09-27T04:02:26;11.30;99.90
54158;DHT22;40065;49.894;10.358;2022-09-27T04:07:49;11.40;99.90
54158;DHT22;40065;49.894;10.358;2022-09-27T04:12:52;11.30;99.90
54158;DHT22;40065;49.894;10.358;2022-09-27T04:17:57;11.30;99.90
54158;DHT22;40065;49.894;10.358;2022-09-27T04:23:08;11.20;99.90
54158;DHT22;40065;49.894;10.358;2022-09-27T04:28:13;11.20;99.90
54158;DHT22;40065;49.894;10.358;2022-09-27T04:33:15;11.20;99.90
54158;DHT22;40065;49.894;10.358;2022-09-27T04:38:37;11.20;99.90
54158;DHT22;40065;49.894;10.358;2022-09-27T04:43:40;11.30;99.90
54158;DHT22;40065;49.894;10.358;2022-09-27T04:48:42;11.30;99.90
54158;DHT22;40065;49.894;10.358;2022-09-27T04:53:44;11.20;99.90
54158;DHT22;40065;49.894;10.358;2022-09-27T04:58:46;11.20;99.90
54158;DHT22;40065;49.894;10.358;2022-09-27T05:03:48;11.10;99.90
54158;DHT22;40065;49.894;10.358;2022-09-27T05:08:50;11.20;99.90
54158;DHT22;40065;49.894;10.358;2022-09-27T05:13:52;11.10;99.90
54158;DHT22;40065;49.894;10.358;2022-09-27T05:18:55;11.20;99.90
54158;DHT22;40065;49.894;10.358;2022-09-27T05:24:16;11.10;99.90
54158;DHT22;40065;49.894;10.358;2022-09-27T05:29:19;11.10;99.90
54158;DHT22;40065;49.894;10.358;2022-09-27T05:34:36;11.20;99.90
54158;DHT22;40065;49.894;10.358;2022-09-27T05:39:37;11.20;99.90
54158;DHT22;40065;49.894;10.358;2022-09-27T05:44:40;11.20;99.90
54158;DHT22;40065;49.894;10.358;2022-09-27T05:49:42;10.90;99.90
54158;DHT22;40065;49.894;10.358;2022-09-27T05:54:45;11.10;99.90
54158;DHT22;40065;49.894;10.358;2022-09-27T05:59:49;11.10;99.90
54158;DHT22;40065;49.894;10.358;2022-09-27T06:04:54;11.20;99.90
54158;DHT22;40065;49.894;10.358;2022-09-27T06:10:15;11.20;99.90
54158;DHT22;40065;49.894;10.358;2022-09-27T06:15:17;11.20;99.90
54158;DHT22;40065;49.894;10.358;2022-09-27T06:20:19;11.10;99.90
54158;DHT22;40065;49.894;10.358;2022-09-27T06:25:22;11.10;99.90
54158;DHT22;40065;49.894;10.358;2022-09-27T06:30:38;11.00;99.90
54158;DHT22;40065;49.894;10.358;2022-09-27T06:35:47;11.10;99.90
54158;DHT22;40065;49.894;10.358;2022-09-27T06:40:52;11.10;99.90
54158;DHT22;40065;49.894;10.358;2022-09-27T06:46:10;11.10;99.90
54158;DHT22;40065;49.894;10.358;2022-09-27T06:51:38;11.30;99.90
54158;DHT22;40065;49.894;10.358;2022-09-27T06:56:40;11.60;99.90
54158;DHT22;40065;49.894;10.358;2022-09-27T07:01:43;11.60;99.90
54158;DHT22;40065;49.894;10.358;2022-09-27T07:07:04;11.60;99.90
54158;DHT22;40065;49.894;10.358;2022-09-27T07:12:09;11.40;99.90
54158;DHT22;40065;49.894;10.358;2022-09-27T07:17:14;11.40;99.90
54158;DHT22;40065;49.894;10.358;2022-09-27T07:22:18;11.40;99.90
54158;DHT22;40065;49.894;10.358;2022-09-27T07:27:27;11.50;99.90
54158;DHT22;40065;49.894;10.358;2022-09-27T07:32:29;11.40;99.90
54158;DHT22;40065;49.894;10.358;2022-09-27T07:37:32;11.10;99.90
54158;DHT22;40065;49.894;10.358;2022-09-27T07:42:35;11.20;99.90
54158;DHT22;40065;49.894;10.358;2022-09-27T07:47:42;11.30;99.90
54158;DHT22;40065;49.894;10.358;2022-09-27T07:52:54;11.40;99.90
54158;DHT22;40065;49.894;10.358;2022-09-27T07:58:09;11.50;99.90
54158;DHT22;40065;49.894;10.358;2022-09-27T08:03:14;11.80;99.90
54158;DHT22;40065;49.894;10.358;2022-09-27T08:08:16;11.90;99.90
54158;DHT22;40065;49.894;10.358;2022-09-27T08:13:20;12.20;99.90
54158;DHT22;40065;49.894;10.358;2022-09-27T08:18:25;12.70;99.90
54158;DHT22;40065;49.894;10.358;2022-09-27T08:23:27;13.00;99.90
54158;DHT22;40065;49.894;10.358;2022-09-27T08:28:46;12.80;99.90
54158;DHT22;40065;49.894;10.358;2022-09-27T08:33:52;12.60;99.90
54158;DHT22;40065;49.894;10.358;2022-09-27T08:38:55;12.40;99.90
54158;DHT22;40065;49.894;10.358;2022-09-27T08:44:26;12.30;99.90
54158;DHT22;40065;49.894;10.358;2022-09-27T08:55:02;12.60;99.90
54158;DHT22;40065;49.894;10.358;2022-09-27T09:00:11;12.50;99.90
54158;DHT22;40065;49.894;10.358;2022-09-27T09:05:21;12.40;99.90
54158;DHT22;40065;49.894;10.358;2022-09-27T09:10:54;12.20;99.90
54158;DHT22;40065;49.894;10.358;2022-09-27T09:16:21;12.20;99.90
54158;DHT22;40065;49.894;10.358;2022-09-27T09:37:46;11.80;99.90
54158;DHT22;40065;49.894;10.358;2022-09-27T09:43:30;11.60;99.90
54158;DHT22;40065;49.894;10.358;2022-09-27T09:48:48;11.60;99.90
54158;DHT22;40065;49.894;10.358;2022-09-27T09:59:14;12.10;99.90
54158;DHT22;40065;49.894;10.358;2022-09-27T10:04:26;12.50;99.90
54158;DHT22;40065;49.894;10.358;2022-09-27T10:09:31;12.70;99.90
54158;DHT22;40065;49.894;10.358;2022-09-27T10:15:15;12.50;99.90
54158;DHT22;40065;49.894;10.358;2022-09-27T10:20:38;12.40;99.90
54158;DHT22;40065;49.894;10.358;2022-09-27T10:26:00;12.40;99.90
54158;DHT22;40065;49.894;10.358;2022-09-27T10:31:19;12.80;99.90
54158;DHT22;40065;49.894;10.358;2022-09-27T10:36:40;13.30;99.90
54158;DHT22;40065;49.894;10.358;2022-09-27T10:41:41;13.60;99.90
54158;DHT22;40065;49.894;10.358;2022-09-27T10:47:07;13.50;99.90
54158;DHT22;40065;49.894;10.358;2022-09-27T10:52:23;13.40;99.90
54158;DHT22;40065;49.894;10.358;2022-09-27T10:57:27;13.30;99.90
54158;DHT22;40065;49.894;10.358;2022-09-27T11:02:36;13.50;99.90
54158;DHT22;40065;49.894;10.358;2022-09-27T11:07:49;13.50;99.90
54158;DHT22;40065;49.894;10.358;2022-09-27T11:18:25;13.80;99.90
54158;DHT22;40065;49.894;10.358;2022-09-27T11:28:44;14.00;99.90
54158;DHT22;40065;49.894;10.358;2022-09-27T11:45:43;14.90;99.90
54158;DHT22;40065;49.894;10.358;2022-09-27T11:56:40;17.20;94.90
54158;DHT22;40065;49.894;10.358;2022-09-27T12:01:53;17.50;95.40
54158;DHT22;40065;49.894;10.358;2022-09-27T12:12:13;19.00;92.80
54158;DHT22;40065;49.894;10.358;2022-09-27T12:17:24;18.60;91.50
54158;DHT22;40065;49.894;10.358;2022-09-27T12:22:37;17.30;92.30
54158;DHT22;40065;49.894;10.358;2022-09-27T12:28:33;16.10;93.80
54158;DHT22;40065;49.894;10.358;2022-09-27T12:39:08;15.20;96.80
54158;DHT22;40065;49.894;10.358;2022-09-27T12:44:16;14.60;99.30
54158;DHT22;40065;49.894;10.358;2022-09-27T13:00:21;14.20;99.80
54158;DHT22;40065;49.894;10.358;2022-09-27T13:05:51;14.70;98.50
54158;DHT22;40065;49.894;10.358;2022-09-27T13:11:28;14.60;97.50
54158;DHT22;40065;49.894;10.358;2022-09-27T13:16:43;14.10;99.10
54158;DHT22;40065;49.894;10.358;2022-09-27T13:27:35;13.30;99.90
54158;DHT22;40065;49.894;10.358;2022-09-27T13:32:39;13.20;99.90
54158;DHT22;40065;49.894;10.358;2022-09-27T13:37:55;13.30;99.90
54158;DHT22;40065;49.894;10.358;2022-09-27T13:48:49;13.60;99.90
54158;DHT22;40065;49.894;10.358;2022-09-27T13:54:05;14.10;99.90
54158;DHT22;40065;49.894;10.358;2022-09-27T13:59:39;14.20;99.90
54158;DHT22;40065;49.894;10.358;2022-09-27T14:05:03;14.20;99.90
54158;DHT22;40065;49.894;10.358;2022-09-27T14:10:16;14.10;99.90
54158;DHT22;40065;49.894;10.358;2022-09-27T14:15:28;13.90;99.90
54158;DHT22;40065;49.894;10.358;2022-09-27T14:20:39;13.80;99.90
54158;DHT22;40065;49.894;10.358;2022-09-27T14:25:53;13.40;99.90
54158;DHT22;40065;49.894;10.358;2022-09-27T14:31:19;13.30;99.90
54158;DHT22;40065;49.894;10.358;2022-09-27T14:36:37;13.10;99.90
54158;DHT22;40065;49.894;10.358;2022-09-27T14:42:04;12.80;99.90
54158;DHT22;40065;49.894;10.358;2022-09-27T14:47:20;12.70;99.90
54158;DHT22;40065;49.894;10.358;2022-09-27T14:52:25;12.80;99.90
54158;DHT22;40065;49.894;10.358;2022-09-27T14:57:30;12.70;99.90
54158;DHT22;40065;49.894;10.358;2022-09-27T15:02:34;12.50;99.90
54158;DHT22;40065;49.894;10.358;2022-09-27T15:07:38;12.50;99.90
54158;DHT22;40065;49.894;10.358;2022-09-27T15:12:40;12.60;99.90
54158;DHT22;40065;49.894;10.358;2022-09-27T15:17:43;12.70;99.90
54158;DHT22;40065;49.894;10.358;2022-09-27T15:22:45;12.90;99.90
54158;DHT22;40065;49.894;10.358;2022-09-27T15:27:52;12.90;99.90
54158;DHT22;40065;49.894;10.358;2022-09-27T15:32:55;12.60;99.90
54158;DHT22;40065;49.894;10.358;2022-09-27T15:38:32;12.60;99.90
54158;DHT22;40065;49.894;10.358;2022-09-27T15:43:45;12.50;99.90
54158;DHT22;40065;49.894;10.358;2022-09-27T15:54:20;12.70;99.90
54158;DHT22;40065;49.894;10.358;2022-09-27T15:59:27;12.70;99.90
54158;DHT22;40065;49.894;10.358;2022-09-27T16:04:29;12.70;99.90
54158;DHT22;40065;49.894;10.358;2022-09-27T16:09:32;12.60;99.90
54158;DHT22;40065;49.894;10.358;2022-09-27T16:14:34;12.50;99.90
54158;DHT22;40065;49.894;10.358;2022-09-27T16:19:35;12.40;99.90
54158;DHT22;40065;49.894;10.358;2022-09-27T16:24:37;12.20;99.90
54158;DHT22;40065;49.894;10.358;2022-09-27T16:29:39;12.30;99.90
54158;DHT22;40065;49.894;10.358;2022-09-27T16:34:44;12.30;99.90
54158;DHT22;40065;49.894;10.358;2022-09-27T16:39:46;12.20;99.90
54158;DHT22;40065;49.894;10.358;2022-09-27T16:44:48;12.10;99.90
54158;DHT22;40065;49.894;10.358;2022-09-27T16:49:51;12.10;99.90
54158;DHT22;40065;49.894;10.358;2022-09-27T16:55:12;12.00;99.90
54158;DHT22;40065;49.894;10.358;2022-09-27T17:00:14;11.90;99.90
54158;DHT22;40065;49.894;10.358;2022-09-27T17:05:16;11.60;99.90
54158;DHT22;40065;49.894;10.358;2022-09-27T17:10:21;11.60;99.90
54158;DHT22;40065;49.894;10.358;2022-09-27T17:15:23;11.70;99.90
54158;DHT22;40065;49.894;10.358;2022-09-27T17:20:24;11.60;99.90
54158;DHT22;40065;49.894;10.358;2022-09-27T17:25:26;11.40;99.90
54158;DHT22;40065;49.894;10.358;2022-09-27T17:30:28;11.30;99.90
54158;DHT22;40065;49.894;10.358;2022-09-27T17:35:30;11.40;99.90
54158;DHT22;40065;49.894;10.358;2022-09-27T17:40:32;11.30;99.90
54158;DHT22;40065;49.894;10.358;2022-09-27T17:45:35;11.20;99.90
54158;DHT22;40065;49.894;10.358;2022-09-27T17:50:36;11.10;99.90
54158;DHT22;40065;49.894;10.358;2022-09-27T17:55:38;11.00;99.90
54158;DHT22;40065;49.894;10.358;2022-09-27T18:00:40;11.00;99.90
54158;DHT22;40065;49.894;10.358;2022-09-27T18:05:42;10.90;99.90
54158;DHT22;40065;49.894;10.358;2022-09-27T18:10:43;10.80;99.90
54158;DHT22;40065;49.894;10.358;2022-09-27T18:15:54;11.00;99.90
54158;DHT22;40065;49.894;10.358;2022-09-27T18:21:01;11.00;99.90
54158;DHT22;40065;49.894;10.358;2022-09-27T18:26:04;11.00;99.90
54158;DHT22;40065;49.894;10.358;2022-09-27T18:31:12;10.90;99.90
54158;DHT22;40065;49.894;10.358;2022-09-27T18:36:19;10.90;99.90
54158;DHT22;40065;49.894;10.358;2022-09-27T18:41:23;10.90;99.90
54158;DHT22;40065;49.894;10.358;2022-09-27T18:46:27;10.70;99.90
54158;DHT22;40065;49.894;10.358;2022-09-27T18:51:39;10.80;99.90
54158;DHT22;40065;49.894;10.358;2022-09-27T18:56:46;10.90;99.90
54158;DHT22;40065;49.894;10.358;2022-09-27T19:01:49;10.90;99.90
54158;DHT22;40065;49.894;10.358;2022-09-27T19:06:55;10.80;99.90
54158;DHT22;40065;49.894;10.358;2022-09-27T19:11:57;10.80;99.90
54158;DHT22;40065;49.894;10.358;2022-09-27T19:16:58;10.70;99.90
54158;DHT22;40065;49.894;10.358;2022-09-27T19:22:00;10.80;99.90
54158;DHT22;40065;49.894;10.358;2022-09-27T19:27:02;10.80;99.90
54158;DHT22;40065;49.894;10.358;2022-09-27T19:32:04;10.70;99.90
54158;DHT22;40065;49.894;10.358;2022-09-27T19:37:05;10.70;99.90
54158;DHT22;40065;49.894;10.358;2022-09-27T19:42:08;10.70;99.90
54158;DHT22;40065;49.894;10.358;2022-09-27T19:47:09;10.80;99.90
54158;DHT22;40065;49.894;10.358;2022-09-27T19:52:11;10.80;99.90
54158;DHT22;40065;49.894;10.358;2022-09-27T19:57:13;10.70;99.90
54158;DHT22;40065;49.894;10.358;2022-09-27T20:02:15;10.80;99.90
54158;DHT22;40065;49.894;10.358;2022-09-27T20:07:17;10.80;99.90
54158;DHT22;40065;49.894;10.358;2022-09-27T20:12:18;10.80;99.90
54158;DHT22;40065;49.894;10.358;2022-09-27T20:17:20;10.80;99.90
54158;DHT22;40065;49.894;10.358;2022-09-27T20:22:22;10.70;99.90
54158;DHT22;40065;49.894;10.358;2022-09-27T20:27:23;10.70;99.90
54158;DHT22;40065;49.894;10.358;2022-09-27T20:32:25;10.60;99.90
54158;DHT22;40065;49.894;10.358;2022-09-27T20:37:29;10.50;99.90
54158;DHT22;40065;49.894;10.358;2022-09-27T20:42:31;10.50;99.90
54158;DHT22;40065;49.894;10.358;2022-09-27T20:47:33;10.50;99.90
54158;DHT22;40065;49.894;10.358;2022-09-27T20:52:34;10.50;99.90
54158;DHT22;40065;49.894;10.358;2022-09-27T20:57:36;10.50;99.90
54158;DHT22;40065;49.894;10.358;2022-09-27T21:02:57;10.40;99.90
54158;DHT22;40065;49.894;10.358;2022-09-27T21:07:59;10.40;99.90
54158;DHT22;40065;49.894;10.358;2022-09-27T21:13:00;10.40;99.90
54158;DHT22;40065;49.894;10.358;2022-09-27T21:18:02;10.40;99.90
54158;DHT22;40065;49.894;10.358;2022-09-27T21:23:04;10.40;99.90
54158;DHT22;40065;49.894;10.358;2022-09-27T21:28:06;10.40;99.90
54158;DHT22;40065;49.894;10.358;2022-09-27T21:33:11;10.30;99.90
54158;DHT22;40065;49.894;10.358;2022-09-27T21:38:13;10.30;99.90
54158;DHT22;40065;49.894;10.358;2022-09-27T21:43:14;10.30;99.90
54158;DHT22;40065;49.894;10.358;2022-09-27T21:48:16;10.30;99.90
54158;DHT22;40065;49.894;10.358;2022-09-27T21:53:18;10.20;99.90
54158;DHT22;40065;49.894;10.358;2022-09-27T21:58:20;10.00;99.90
54158;DHT22;40065;49.894;10.358;2022-09-27T22:03:22;10.00;99.90
54158;DHT22;40065;49.894;10.358;2022-09-27T22:08:23;9.90;99.90
54158;DHT22;40065;49.894;10.358;2022-09-27T22:13:25;9.90;99.90
54158;DHT22;40065;49.894;10.358;2022-09-27T22:18:34;9.80;99.90
54158;DHT22;40065;49.894;10.358;2022-09-27T22:23:38;9.70;99.90
54158;DHT22;40065;49.894;10.358;2022-09-27T22:28:40;9.70;99.90
54158;DHT22;40065;49.894;10.358;2022-09-27T22:33:42;9.50;99.90
54158;DHT22;40065;49.894;10.358;2022-09-27T22:38:43;9.50;99.90
54158;DHT22;40065;49.894;10.358;2022-09-27T22:43:45;9.50;99.90
54158;DHT22;40065;49.894;10.358;2022-09-27T22:48:47;9.50;99.90
54158;DHT22;40065;49.894;10.358;2022-09-27T22:53:50;9.30;99.90
54158;DHT22;40065;49.894;10.358;2022-09-27T22:58:51;9.30;99.90
54158;DHT22;40065;49.894;10.358;2022-09-27T23:03:53;9.20;99.90
54158;DHT22;40065;49.894;10.358;2022-09-27T23:08:56;9.20;99.90
54158;DHT22;40065;49.894;10.358;2022-09-27T23:14:07;9.10;99.90
54158;DHT22;40065;49.894;10.358;2022-09-27T23:19:09;9.00;99.90
54158;DHT22;40065;49.894;10.358;2022-09-27T23:24:11;9.00;99.90
54158;DHT22;40065;49.894;10.358;2022-09-27T23:29:13;8.90;99.90
54158;DHT22;40065;49.894;10.358;2022-09-27T23:34:15;9.00;99.90
54158;DHT22;40065;49.894;10.358;2022-09-27T23:39:18;9.00;99.90
54158;DHT22;40065;49.894;10.358;2022-09-27T23:44:20;8.90;99.90
54158;DHT22;40065;49.894;10.358;2022-09-27T23:49:23;8.90;99.90
54158;DHT22;40065;49.894;10.358;2022-09-27T23:54:26;8.80;99.90
54158;DHT22;40065;49.894;10.358;2022-09-27T23:59:28;8.90;99.90
